Time;durP1;ratioP1;P1;durP2;ratioP2;P2;SDS_P1;SDS_P2;PMS_P1;PMS_P2;Temp;Humidity;BMP_temperature;BMP_pressure;BME280_temperature;BME280_humidity;BME280_pressure;Samples;Min_cycle;Max_cycle;Signal;HPM_P1;HPM_P2
2023/01/18 00:01:12;;;;;;;24.67;12.68;;;;;;;2.88;71.05;98731.41;4984486;28;20049;-63
2023/01/18 00:03:41;;;;;;;23.45;12.65;;;;;;;2.72;71.72;98741.88;4981597;28;20047;-62
2023/01/18 00:06:09;;;;;;;24.13;12.98;;;;;;;2.69;70.70;98734.34;4976651;28;20490;-61
2023/01/18 00:08:38;;;;;;;25.42;12.75;;;;;;;2.69;71.82;98742.50;4988604;28;20050;-60
2023/01/18 00:11:11;;;;;;;24.05;13.23;;;;;;;2.76;71.05;98750.19;4968637;28;20046;-62
2023/01/18 00:13:38;;;;;;;25.00;12.68;;;;;;;2.59;70.19;98758.25;4999043;28;20081;-61
2023/01/18 00:16:10;;;;;;;27.73;13.15;;;;;;;2.09;71.12;98752.09;4998846;28;20054;-61
2023/01/18 00:18:38;;;;;;;24.50;13.45;;;;;;;2.37;72.11;98752.81;5012719;28;20065;-61
2023/01/18 00:21:08;;;;;;;24.30;12.43;;;;;;;2.15;71.38;98748.97;5009749;28;20058;-60
2023/01/18 00:23:35;;;;;;;22.98;12.75;;;;;;;1.83;73.46;98757.25;5014547;28;20054;-62
2023/01/18 00:26:05;;;;;;;24.10;11.73;;;;;;;2.09;73.24;98766.47;5013298;28;20055;-62
2023/01/18 00:28:33;;;;;;;26.58;12.80;;;;;;;2.09;74.08;98769.19;4997966;28;20061;-62
2023/01/18 00:31:00;;;;;;;21.48;10.90;;;;;;;1.93;73.54;98770.66;4998858;28;20402;-66
2023/01/18 00:33:28;;;;;;;25.35;11.90;;;;;;;1.98;73.89;98772.44;4999510;28;20057;-61
2023/01/18 00:35:58;;;;;;;26.15;11.13;;;;;;;1.83;75.23;98775.47;5013725;28;20061;-63
2023/01/18 00:38:26;;;;;;;26.30;11.55;;;;;;;1.85;74.01;98771.34;4984063;28;20050;-59
2023/01/18 00:40:54;;;;;;;23.15;11.55;;;;;;;1.80;74.49;98778.78;4998699;28;20054;-62
2023/01/18 00:43:37;;;;;;;26.00;11.32;;;;;;;1.75;74.78;98777.00;5013988;28;20534;-60
2023/01/18 00:46:07;;;;;;;23.85;12.05;;;;;;;2.02;76.12;98779.66;4998112;28;20054;-60
2023/01/18 00:48:34;;;;;;;25.52;12.77;;;;;;;2.20;75.11;98776.00;4980532;28;20046;-61
2023/01/18 00:51:02;;;;;;;25.35;12.80;;;;;;;2.46;74.61;98778.16;4998484;28;20051;-63
2023/01/18 00:53:30;;;;;;;22.52;12.65;;;;;;;2.65;74.58;98784.97;4997722;28;20046;-62
2023/01/18 00:55:58;;;;;;;29.73;14.23;;;;;;;2.30;74.99;98788.56;4985872;28;20054;-64
2023/01/18 00:58:25;;;;;;;28.95;14.60;;;;;;;2.23;76.51;98797.09;5013612;28;20054;-62
2023/01/18 01:00:52;;;;;;;27.83;14.65;;;;;;;2.08;76.31;98792.03;4984584;28;20065;-62
2023/01/18 01:03:20;;;;;;;28.58;14.18;;;;;;;2.53;75.70;98802.97;4997546;28;20043;-62
2023/01/18 01:08:34;;;;;;;27.50;14.55;;;;;;;2.43;75.64;98801.28;4998547;28;20073;-63
2023/01/18 01:11:10;;;;;;;27.85;15.02;;;;;;;2.46;75.97;98808.81;4996344;28;20054;-62
2023/01/18 01:27:28;;;;;;;26.58;14.43;;;;;;;1.88;79.38;98827.72;4998268;28;20065;-62
2023/01/18 01:29:55;;;;;;;25.35;14.02;;;;;;;1.68;79.29;98838.19;4981090;28;20630;-61
2023/01/18 01:32:23;;;;;;;24.80;13.68;;;;;;;2.13;78.83;98837.25;4995187;28;20051;-62
2023/01/18 01:34:51;;;;;;;24.88;13.23;;;;;;;2.04;78.12;98841.81;4998494;28;20057;-61
2023/01/18 01:37:18;;;;;;;31.63;13.65;;;;;;;2.05;78.00;98833.38;4997819;28;20050;-62
2023/01/18 01:39:46;;;;;;;24.10;12.57;;;;;;;2.11;78.24;98840.28;5013031;28;20057;-62
2023/01/18 01:42:13;;;;;;;24.45;12.45;;;;;;;1.90;77.79;98846.44;4980350;28;20383;-62
2023/01/18 01:44:46;;;;;;;27.67;13.35;;;;;;;1.71;78.84;98849.25;5005436;28;20066;-61
2023/01/18 01:47:25;;;;;;;25.20;12.95;;;;;;;2.07;78.31;98857.50;4965467;28;20051;-62
2023/01/18 01:49:57;;;;;;;29.42;12.60;;;;;;;2.17;76.33;98858.09;4996439;28;20050;-62
2023/01/18 01:52:31;;;;;;;26.02;12.60;;;;;;;2.48;76.10;98860.13;4996116;28;20072;-63
2023/01/18 01:55:03;;;;;;;24.83;11.90;;;;;;;1.76;76.15;98860.00;4998301;28;20047;-62
2023/01/18 01:57:35;;;;;;;22.85;11.88;;;;;;;1.61;77.02;98871.16;4980883;28;20050;-61
2023/01/18 02:00:07;;;;;;;25.08;12.25;;;;;;;1.84;77.11;98867.47;4985190;28;20055;-62
2023/01/18 02:02:39;;;;;;;22.98;11.63;;;;;;;2.12;76.96;98863.63;4989856;28;20503;-62
2023/01/18 02:05:08;;;;;;;23.65;12.60;;;;;;;2.10;76.85;98865.03;4978252;28;20058;-65
2023/01/18 02:07:36;;;;;;;23.93;12.03;;;;;;;2.36;76.21;98868.00;4997565;28;20054;-62
2023/01/18 02:10:04;;;;;;;25.63;12.27;;;;;;;2.32;75.56;98870.53;4997465;28;20057;-63
2023/01/18 02:12:32;;;;;;;25.38;11.68;;;;;;;2.21;75.32;98880.00;5012364;28;20058;-61
2023/01/18 02:15:00;;;;;;;22.70;10.48;;;;;;;2.14;74.78;98879.63;4995379;28;20065;-63
2023/01/18 02:17:42;;;;;;;21.05;10.00;;;;;;;1.93;75.47;98883.84;4997402;28;20046;-61
2023/01/18 02:20:30;;;;;;;21.38;11.15;;;;;;;2.12;75.50;98879.09;4986675;28;20054;-61
2023/01/18 02:23:17;;;;;;;25.17;10.88;;;;;;;2.33;74.99;98883.00;4958634;28;20058;-62
2023/01/18 02:26:05;;;;;;;20.38;10.02;;;;;;;1.97;75.02;98882.16;4966820;28;20051;-61
2023/01/18 02:28:35;;;;;;;19.80;9.30;;;;;;;2.18;74.87;98883.31;4997265;28;20403;-61
2023/01/18 02:31:16;;;;;;;18.85;8.88;;;;;;;2.53;73.42;98879.84;4988248;28;20054;-65
2023/01/18 02:33:44;;;;;;;17.55;8.93;;;;;;;2.57;72.11;98889.00;4960680;28;20426;-61
2023/01/18 02:36:25;;;;;;;17.63;7.95;;;;;;;2.40;72.67;98891.56;4996585;28;20046;-61
2023/01/18 02:39:01;;;;;;;14.05;8.23;;;;;;;2.39;72.95;98892.66;4977720;28;20066;-59
2023/01/18 02:47:15;;;;;;;19.58;8.98;;;;;;;2.90;71.62;98892.31;4995335;28;20046;-61
2023/01/18 02:49:43;;;;;;;14.10;8.18;;;;;;;2.75;71.75;98898.13;4978989;28;20523;-62
2023/01/18 02:52:38;;;;;;;16.75;8.50;;;;;;;2.44;72.15;98905.34;4972322;28;20054;-62
2023/01/18 02:55:17;;;;;;;18.15;8.77;;;;;;;2.60;72.51;98906.63;4992175;28;20080;-63
2023/01/18 02:57:44;;;;;;;18.63;8.10;;;;;;;2.76;72.94;98908.69;4977318;28;20047;-61
2023/01/18 03:00:16;;;;;;;16.98;8.52;;;;;;;2.59;72.56;98913.16;4977248;28;20066;-61
2023/01/18 03:02:46;;;;;;;17.10;9.18;;;;;;;2.64;72.98;98922.00;4995720;28;20490;-61
2023/01/18 03:05:13;;;;;;;19.48;9.68;;;;;;;2.40;73.44;98924.16;4977459;28;20058;-61
2023/01/18 03:07:52;;;;;;;19.30;9.48;;;;;;;2.83;74.07;98921.84;4996206;28;20050;-64
2023/01/18 03:10:20;;;;;;;17.92;9.30;;;;;;;2.73;73.75;98927.50;4975718;28;20070;-61
2023/01/18 03:13:08;;;;;;;18.92;9.63;;;;;;;2.65;72.72;98941.84;5011341;28;20051;-62
2023/01/18 03:15:50;;;;;;;16.55;10.18;;;;;;;2.20;73.82;98943.56;4993845;28;20418;-62
2023/01/18 03:18:22;;;;;;;15.88;10.35;;;;;;;2.21;74.66;98940.53;4979182;28;20046;-61
2023/01/18 03:20:52;;;;;;;23.55;10.82;;;;;;;2.17;74.64;98945.00;5010837;28;20522;-61
2023/01/18 03:23:37;;;;;;;27.08;9.95;;;;;;;2.28;75.18;98951.03;4978741;28;20039;-61
2023/01/18 03:26:09;;;;;;;19.40;10.70;;;;;;;2.13;74.78;98957.56;4975563;28;20057;-62
2023/01/18 03:34:24;;;;;;;19.30;10.30;;;;;;;1.68;77.26;98950.25;4995326;28;20042;-60
2023/01/18 03:36:53;;;;;;;21.85;10.52;;;;;;;1.44;77.26;98955.03;4994596;28;20633;-62
2023/01/18 03:39:27;;;;;;;24.45;11.50;;;;;;;1.57;78.36;98956.16;4995195;28;20058;-60
2023/01/18 03:42:05;;;;;;;22.83;11.05;;;;;;;1.64;78.29;98951.94;4996166;28;20054;-61
2023/01/18 03:44:35;;;;;;;22.98;11.07;;;;;;;1.70;77.63;98960.81;4992659;28;20062;-61
2023/01/18 03:47:04;;;;;;;22.20;10.95;;;;;;;1.59;78.82;98970.22;4977781;28;20068;-63
2023/01/18 03:49:32;;;;;;;20.83;11.57;;;;;;;1.26;78.37;98974.03;4999914;28;20245;-62
2023/01/18 03:52:16;;;;;;;23.67;11.27;;;;;;;1.55;78.09;98980.06;4997975;28;20054;-60
2023/01/18 03:55:16;;;;;;;23.35;11.23;;;;;;;1.60;78.58;98986.22;4999889;28;20054;-59
2023/01/18 03:57:48;;;;;;;23.40;11.60;;;;;;;1.56;79.09;98996.06;4960042;28;20054;-60
2023/01/18 04:00:16;;;;;;;20.13;11.90;;;;;;;1.65;78.17;99002.41;4989234;28;20058;-61
2023/01/18 04:02:46;;;;;;;23.45;11.32;;;;;;;1.62;78.89;99004.91;4976091;28;20059;-60
2023/01/18 04:05:14;;;;;;;;;;;;;;;1.92;78.41;99013.34;4963290;28;20051;-61
2023/01/18 04:07:41;;;;;;;23.60;11.27;;;;;;;1.69;78.09;99010.78;4999564;28;19921;-59
2023/01/18 04:10:10;;;;;;;25.45;11.60;;;;;;;1.66;78.12;99017.59;4999699;28;20042;-60
2023/01/18 04:12:37;;;;;;;26.45;11.70;;;;;;;1.36;78.24;99011.84;4982255;28;20050;-62
2023/01/18 04:15:05;;;;;;;25.95;11.68;;;;;;;1.45;79.22;99018.22;4998445;28;20046;-62
2023/01/18 04:17:33;;;;;;;18.52;11.20;;;;;;;1.84;78.49;99024.06;4981809;28;20062;-62
2023/01/18 04:20:00;;;;;;;20.85;11.15;;;;;;;1.62;78.64;99027.41;4996985;28;20062;-61
2023/01/18 04:22:28;;;;;;;23.60;11.65;;;;;;;1.62;78.10;99023.91;4998072;28;20054;-62
2023/01/18 04:24:55;;;;;;;20.95;11.10;;;;;;;1.45;79.25;99037.22;4999734;28;20573;-62
2023/01/18 04:27:24;;;;;;;21.85;10.77;;;;;;;1.15;79.25;99035.75;5013922;28;20066;-62
2023/01/18 04:29:51;;;;;;;23.90;10.93;;;;;;;1.41;79.41;99037.00;4999365;28;20058;-63
2023/01/18 04:32:19;;;;;;;24.23;11.63;;;;;;;1.32;79.05;99046.06;5012953;28;20050;-61
2023/01/18 04:34:46;;;;;;;25.08;11.35;;;;;;;1.43;79.01;99050.25;4999192;28;20553;-61
2023/01/18 04:37:14;;;;;;;19.83;11.02;;;;;;;1.51;78.48;99046.88;4995716;28;20053;-63
2023/01/18 04:39:41;;;;;;;23.75;11.52;;;;;;;1.67;78.16;99048.25;4999089;28;20058;-62
2023/01/18 04:42:09;;;;;;;18.38;10.13;;;;;;;1.31;77.91;99056.13;4998324;28;20415;-62
2023/01/18 04:44:36;;;;;;;19.48;10.40;;;;;;;1.21;78.62;99058.97;4997749;28;20054;-62
2023/01/18 04:47:04;;;;;;;20.48;10.00;;;;;;;1.43;79.01;99056.47;4997809;28;20498;-62
2023/01/18 04:49:31;;;;;;;21.10;11.00;;;;;;;1.46;77.63;99057.81;4998123;28;20046;-61
2023/01/18 04:51:59;;;;;;;18.42;10.07;;;;;;;1.43;78.18;99063.81;4996914;28;20050;-61
2023/01/18 04:54:27;;;;;;;21.63;10.05;;;;;;;1.61;77.95;99061.09;4979336;28;20055;-62
2023/01/18 04:56:54;;;;;;;21.23;9.63;;;;;;;1.17;78.33;99060.66;4993110;28;20498;-62
2023/01/18 04:59:21;;;;;;;19.38;10.38;;;;;;;1.39;78.18;99060.91;4992192;28;20062;-62
2023/01/18 05:01:49;;;;;;;20.38;10.00;;;;;;;1.65;78.26;99056.69;4992024;28;20059;-60
2023/01/18 05:04:16;;;;;;;15.40;9.65;;;;;;;1.86;77.87;99060.69;4997652;28;20058;-61
2023/01/18 05:06:44;;;;;;;20.45;10.10;;;;;;;2.05;76.51;99064.16;4996934;28;20054;-62
2023/01/18 05:09:12;;;;;;;20.73;9.75;;;;;;;1.80;75.21;99064.56;4994346;28;20065;-61
2023/01/18 05:11:39;;;;;;;23.63;10.07;;;;;;;1.97;74.98;99069.47;4989237;28;20046;-62
2023/01/18 05:14:07;;;;;;;20.35;9.80;;;;;;;1.94;75.44;99070.84;4998676;28;20490;-63
2023/01/18 05:16:35;;;;;;;20.45;9.45;;;;;;;1.58;75.23;99083.41;4980917;28;20526;-61
2023/01/18 05:19:03;;;;;;;17.77;10.38;;;;;;;1.69;75.15;99076.69;4998813;28;20087;-60
2023/01/18 05:21:30;;;;;;;17.98;8.65;;;;;;;1.36;76.10;99080.44;4997996;28;20065;-59
2023/01/18 05:23:58;;;;;;;14.20;8.65;;;;;;;1.35;75.86;99084.28;5012639;28;20058;-62
2023/01/18 05:26:25;;;;;;;16.73;8.63;;;;;;;1.71;76.08;99090.78;4992827;28;20051;-61
2023/01/18 05:28:56;;;;;;;17.98;9.40;;;;;;;1.62;74.89;99086.31;4978627;28;20058;-61
2023/01/18 05:31:24;;;;;;;23.95;9.27;;;;;;;1.63;75.74;99093.34;4970552;28;20046;-59
2023/01/18 05:33:52;;;;;;;23.23;8.80;;;;;;;1.94;74.88;99098.00;5013319;28;20038;-62
2023/01/18 05:36:19;;;;;;;16.80;9.65;;;;;;;2.14;73.98;99103.09;4977051;28;20054;-61
2023/01/18 05:38:46;;;;;;;17.25;8.85;;;;;;;2.13;74.21;99106.91;4978973;28;20047;-62
2023/01/18 05:41:14;;;;;;;19.85;9.57;;;;;;;2.25;73.46;99103.72;5001051;28;20046;-60
2023/01/18 05:43:41;;;;;;;16.90;8.20;;;;;;;2.24;72.64;99104.84;4991202;28;20039;-62
2023/01/18 05:46:09;;;;;;;15.52;8.43;;;;;;;2.18;72.87;99117.69;4968986;28;20406;-61
2023/01/18 05:48:36;;;;;;;16.00;8.07;;;;;;;2.18;73.47;99125.84;5013029;28;20049;-61
2023/01/18 05:51:09;;;;;;;26.25;8.75;;;;;;;1.99;74.26;99133.22;4996217;28;20073;-61
2023/01/18 05:53:36;;;;;;;18.88;8.27;;;;;;;1.95;73.05;99134.13;4998094;28;20070;-61
2023/01/18 05:56:05;;;;;;;13.70;7.43;;;;;;;1.81;73.23;99141.41;4997755;28;20510;-59
2023/01/18 05:58:33;;;;;;;16.60;7.10;;;;;;;1.57;73.79;99140.66;4998397;28;20057;-62
2023/01/18 06:01:01;;;;;;;19.70;7.88;;;;;;;1.57;74.29;99136.03;4966119;28;20050;-61
2023/01/18 06:03:28;;;;;;;15.48;7.70;;;;;;;1.56;74.27;99141.75;4980263;28;20077;-60
2023/01/18 06:05:58;;;;;;;16.23;7.95;;;;;;;1.47;74.69;99151.63;4995061;28;20053;-60
2023/01/18 06:08:26;;;;;;;14.85;7.78;;;;;;;1.82;75.00;99148.41;4997772;28;20050;-61
2023/01/18 06:10:56;;;;;;;17.30;8.52;;;;;;;1.85;74.46;99148.63;4979100;28;20054;-62
2023/01/18 06:13:26;;;;;;;18.65;8.52;;;;;;;2.19;73.77;99151.91;4997333;28;20053;-60
2023/01/18 06:15:55;;;;;;;17.45;8.10;;;;;;;2.33;72.57;99149.22;5011201;28;20061;-62
2023/01/18 06:18:23;;;;;;;15.43;7.57;;;;;;;2.39;72.30;99158.09;4984856;28;20234;-63
2023/01/18 06:20:58;;;;;;;16.83;8.35;;;;;;;2.71;72.19;99167.03;4983134;28;20513;-62
2023/01/18 06:23:28;;;;;;;19.45;8.38;;;;;;;2.72;71.03;99176.78;4980133;28;20061;-61
2023/01/18 06:25:56;;;;;;;13.73;7.75;;;;;;;2.74;70.70;99182.72;4979936;28;20210;-62
2023/01/18 06:28:24;;;;;;;17.15;7.85;;;;;;;2.50;71.25;99184.78;4998007;28;20050;-62
2023/01/18 06:30:53;;;;;;;16.83;7.63;;;;;;;2.50;71.85;99184.78;4997343;28;20046;-61
2023/01/18 06:33:22;;;;;;;15.88;8.23;;;;;;;2.45;72.22;99184.06;4997655;28;20061;-63
2023/01/18 06:35:50;;;;;;;19.73;8.60;;;;;;;2.76;71.46;99187.88;4984219;28;20403;-63
2023/01/18 06:38:18;;;;;;;21.00;8.10;;;;;;;2.76;71.22;99190.59;5013012;28;20050;-63
2023/01/18 06:40:45;;;;;;;20.08;8.30;;;;;;;2.94;70.92;99206.03;4980176;28;20050;-60
2023/01/18 06:43:12;;;;;;;18.77;9.02;;;;;;;3.02;70.44;99210.75;4997331;28;20046;-63
2023/01/18 06:45:40;;;;;;;18.05;9.05;;;;;;;2.74;71.01;99207.19;4996024;28;20050;-61
2023/01/18 06:48:08;;;;;;;24.95;9.63;;;;;;;2.93;70.87;99212.59;4989116;28;20047;-62
2023/01/18 06:50:35;;;;;;;18.23;9.75;;;;;;;3.03;70.90;99223.28;4980106;28;20398;-62
2023/01/18 06:53:03;;;;;;;19.83;10.98;;;;;;;2.63;71.46;99232.97;4978422;28;20051;-62
2023/01/18 06:55:30;;;;;;;19.48;10.25;;;;;;;2.64;71.99;99231.03;4979677;28;20070;-61
2023/01/18 06:57:58;;;;;;;20.83;11.23;;;;;;;2.33;72.27;99230.72;4996138;28;20406;-63
2023/01/18 07:00:25;;;;;;;20.13;10.85;;;;;;;2.41;72.77;99240.13;4983819;28;20077;-61
2023/01/18 07:02:53;;;;;;;24.67;11.57;;;;;;;2.55;73.30;99240.97;4979670;28;20437;-63
2023/01/18 07:05:21;;;;;;;17.75;10.82;;;;;;;2.67;72.58;99239.41;4992863;28;20051;-62
2023/01/18 07:07:49;;;;;;;22.33;10.82;;;;;;;2.80;71.99;99238.63;4962609;28;20055;-62
2023/01/18 07:10:16;;;;;;;22.75;12.13;;;;;;;2.48;72.73;99244.06;4977112;28;20069;-62
2023/01/18 07:12:47;;;;;;;21.23;12.45;;;;;;;2.95;72.13;99241.09;4976776;28;20051;-62
2023/01/18 07:15:16;;;;;;;23.95;12.38;;;;;;;3.20;71.34;99243.34;4976865;28;20537;-63
2023/01/18 07:17:49;;;;;;;22.83;12.52;;;;;;;3.12;71.04;99254.13;4990511;28;20058;-62
2023/01/18 07:20:18;;;;;;;25.58;12.93;;;;;;;2.95;71.26;99257.41;4960058;28;20078;-62
2023/01/18 07:22:52;;;;;;;26.30;13.80;;;;;;;2.75;72.03;99260.47;4988684;28;20400;-62
2023/01/18 07:25:20;;;;;;;28.70;13.25;;;;;;;2.49;72.56;99266.63;4986389;28;20043;-62
2023/01/18 07:27:48;;;;;;;25.38;13.82;;;;;;;2.47;72.74;99277.78;4970640;28;20403;-63
2023/01/18 07:30:16;;;;;;;26.73;13.07;;;;;;;2.49;72.59;99288.34;4973793;28;20042;-62
2023/01/18 07:32:50;;;;;;;26.00;13.45;;;;;;;2.36;72.83;99291.81;4954993;28;20059;-62
2023/01/18 07:35:20;;;;;;;31.58;14.13;;;;;;;2.46;73.10;99286.25;4970488;28;20054;-61
2023/01/18 07:37:51;;;;;;;31.95;13.63;;;;;;;2.42;73.20;99296.88;4977083;28;20062;-64
2023/01/18 07:40:20;;;;;;;29.63;14.00;;;;;;;2.64;72.63;99296.25;4972729;28;20059;-60
2023/01/18 07:42:48;;;;;;;26.55;13.07;;;;;;;2.40;72.88;99306.44;4969646;28;20058;-63
2023/01/18 07:45:16;;;;;;;27.77;13.40;;;;;;;2.38;73.11;99311.34;4972811;28;20050;-58
2023/01/18 07:47:45;;;;;;;28.95;14.13;;;;;;;2.86;72.62;99318.22;4953413;28;20051;-61
2023/01/18 07:50:16;;;;;;;24.48;13.55;;;;;;;2.97;71.96;99309.59;4975123;28;20039;-61
2023/01/18 07:52:43;;;;;;;29.83;13.77;;;;;;;3.04;71.09;99326.31;4958062;28;20118;-60
2023/01/18 07:55:10;;;;;;;27.77;12.38;;;;;;;2.70;71.74;99338.59;4978793;28;20062;-56
2023/01/18 07:57:38;;;;;;;30.17;13.35;;;;;;;3.07;76.47;99319.47;4979359;28;20043;-68
2023/01/18 08:00:07;;;;;;;23.98;12.55;;;;;;;4.88;69.83;99316.47;4990483;28;20430;-67
2023/01/18 08:02:40;;;;;;;31.95;12.75;;;;;;;5.14;65.42;99317.47;4978294;28;20054;-71
2023/01/18 08:05:09;;;;;;;24.02;12.52;;;;;;;5.03;64.96;99312.56;4976031;28;20046;-73
2023/01/18 08:07:37;;;;;;;24.60;12.73;;;;;;;4.01;64.90;99329.63;4978463;28;20058;-69
2023/01/18 08:10:04;;;;;;;20.25;12.32;;;;;;;3.83;67.06;99333.28;4976386;28;20049;-69
2023/01/18 08:12:32;;;;;;;24.35;13.27;;;;;;;3.15;68.18;99341.38;4978696;28;20050;-68
2023/01/18 08:15:00;;;;;;;26.10;12.75;;;;;;;2.93;69.23;99334.97;4990748;28;20038;-68
2023/01/18 08:17:28;;;;;;;27.98;13.40;;;;;;;3.16;69.22;99347.59;4976915;28;20491;-67
2023/01/18 08:19:56;;;;;;;26.80;13.73;;;;;;;2.94;69.98;99348.25;4975747;28;20047;-69
2023/01/18 08:22:24;;;;;;;20.73;12.50;;;;;;;3.40;70.13;99354.53;4971773;28;20086;-67
2023/01/18 08:24:51;;;;;;;26.23;13.77;;;;;;;3.03;69.72;99357.31;4978469;28;20054;-68
2023/01/18 08:27:22;;;;;;;25.23;13.27;;;;;;;2.58;70.84;99368.13;4956853;28;20537;-65
2023/01/18 08:29:53;;;;;;;28.50;13.70;;;;;;;2.54;71.61;99369.81;4979841;28;20515;-68
2023/01/18 08:32:20;;;;;;;30.10;14.15;;;;;;;2.43;72.35;99365.59;4992908;28;20054;-68
2023/01/18 08:34:48;;;;;;;26.02;13.35;;;;;;;2.42;72.35;99364.00;4977209;28;20534;-67
2023/01/18 08:37:16;;;;;;;23.42;13.20;;;;;;;2.63;72.03;99374.31;4977113;28;20054;-69
2023/01/18 08:39:43;;;;;;;23.38;13.48;;;;;;;2.84;71.12;99372.09;4979620;28;20050;-68
2023/01/18 08:42:11;;;;;;;26.95;13.98;;;;;;;3.15;70.74;99365.84;4970032;28;20190;-68
2023/01/18 08:44:38;;;;;;;22.55;12.80;;;;;;;3.34;70.02;99373.97;4993602;28;20046;-67
2023/01/18 08:47:06;;;;;;;27.02;13.52;;;;;;;3.15;69.82;99374.03;4991251;28;20066;-67
2023/01/18 08:49:34;;;;;;;27.35;13.90;;;;;;;3.09;69.60;99368.94;4992584;28;20066;-66
2023/01/18 08:52:02;;;;;;;27.10;14.52;;;;;;;3.30;69.92;99386.53;4979617;28;20049;-66
2023/01/18 08:54:29;;;;;;;28.55;14.02;;;;;;;3.02;70.39;99395.72;4975654;28;20380;-70
2023/01/18 08:56:57;;;;;;;26.63;14.57;;;;;;;2.91;70.75;99394.28;4980035;28;20414;-72
2023/01/18 08:59:24;;;;;;;29.63;14.60;;;;;;;2.98;70.49;99403.66;4984830;28;20057;-69
2023/01/18 09:01:52;;;;;;;27.10;14.43;;;;;;;3.46;71.13;99401.50;4962820;28;20058;-69
2023/01/18 09:04:19;;;;;;;29.42;14.75;;;;;;;3.43;70.56;99402.13;4958925;28;20054;-71
2023/01/18 09:06:50;;;;;;;27.92;15.13;;;;;;;3.22;69.85;99422.59;4994992;28;20054;-70
2023/01/18 09:09:18;;;;;;;28.80;14.90;;;;;;;3.48;72.66;99431.97;4974607;28;20058;-69
2023/01/18 09:11:45;;;;;;;30.13;14.75;;;;;;;3.78;69.58;99434.16;4964877;28;20422;-70
2023/01/18 09:14:14;;;;;;;27.23;13.80;;;;;;;3.54;69.27;99432.69;4972721;28;20062;-71
2023/01/18 09:16:45;;;;;;;27.40;14.45;;;;;;;4.49;71.79;99437.09;4962316;28;20054;-69
2023/01/18 09:19:13;;;;;;;26.17;13.30;;;;;;;4.63;69.51;99445.25;4962596;28;20152;-71
2023/01/18 09:21:41;;;;;;;23.40;12.63;;;;;;;3.82;66.42;99448.78;4961641;28;20059;-70
2023/01/18 09:24:11;;;;;;;28.83;13.60;;;;;;;3.95;67.40;99455.34;4961943;28;20459;-70
2023/01/18 09:26:39;;;;;;;24.20;13.73;;;;;;;3.67;67.63;99450.97;4993064;28;20048;-70
2023/01/18 09:29:07;;;;;;;28.17;12.68;;;;;;;4.22;70.57;99447.22;5008384;28;20057;-70
2023/01/18 09:31:35;;;;;;;21.65;12.13;;;;;;;3.81;67.99;99460.78;4977012;28;20058;-69
2023/01/18 09:34:03;;;;;;;28.80;12.45;;;;;;;3.69;68.10;99454.19;4993164;28;20047;-69
2023/01/18 09:36:46;;;;;;;25.27;12.65;;;;;;;3.44;68.05;99471.75;4965221;28;20051;-70
2023/01/18 09:39:13;;;;;;;24.02;11.65;;;;;;;3.73;70.56;99463.38;4958027;28;20050;-70
2023/01/18 09:41:43;;;;;;;20.60;11.68;;;;;;;3.73;67.66;99466.13;4982507;28;20053;-70
2023/01/18 09:44:27;;;;;;;22.63;10.80;;;;;;;3.20;68.54;99476.50;4957293;28;20046;-71
2023/01/18 09:47:09;;;;;;;21.75;11.70;;;;;;;4.44;68.22;99469.13;4996911;28;20045;-70
2023/01/18 09:50:09;;;;;;;21.67;10.48;;;;;;;3.93;66.15;99487.53;4975691;28;20055;-69
2023/01/18 09:52:50;;;;;;;18.45;10.45;;;;;;;3.57;67.39;99500.97;4955627;28;20055;-69
2023/01/18 09:55:36;;;;;;;21.95;10.57;;;;;;;3.62;67.90;99503.59;4965702;28;20050;-70
2023/01/18 09:58:18;;;;;;;22.08;11.40;;;;;;;3.71;67.19;99492.81;4963772;28;20058;-69
2023/01/18 10:00:47;;;;;;;19.92;9.63;;;;;;;3.75;67.39;99494.66;5011914;28;20054;-69
2023/01/18 10:03:53;;;;;;;18.05;10.18;;;;;;;3.68;67.92;99505.09;4977996;28;20059;-69
2023/01/18 10:06:42;;;;;;;16.20;8.88;;;;;;;4.07;69.86;99505.53;4982055;28;20051;-69
2023/01/18 10:09:18;;;;;;;13.48;8.07;;;;;;;4.15;66.25;99506.75;4976834;28;20062;-66
2023/01/18 10:12:27;;;;;;;23.17;10.60;;;;;;;3.81;67.05;99509.81;4980234;28;20054;-67
2023/01/18 10:15:19;;;;;;;15.63;8.63;;;;;;;3.63;67.70;99516.09;4965226;28;20067;-65
2023/01/18 10:17:52;;;;;;;17.38;7.75;;;;;;;4.04;70.11;99508.84;4965691;28;20658;-64
2023/01/18 10:20:27;;;;;;;26.48;9.18;;;;;;;4.38;67.38;99503.84;4964317;28;20050;-65
2023/01/18 10:22:58;;;;;;;15.18;8.90;;;;;;;4.36;67.51;99510.69;4975403;28;20051;-65
2023/01/18 10:26:06;;;;;;;15.65;8.73;;;;;;;4.26;67.23;99511.72;4989308;28;20050;-67
2023/01/18 10:28:55;;;;;;;19.80;7.70;;;;;;;4.61;67.05;99526.56;4984007;28;20050;-63
2023/01/18 10:31:32;;;;;;;14.95;7.20;;;;;;;4.38;65.90;99516.66;4976917;28;20061;-65
2023/01/18 10:34:03;;;;;;;15.82;6.93;;;;;;;4.06;67.07;99524.91;4991955;28;20047;-64
2023/01/18 10:36:37;;;;;;;15.32;6.95;;;;;;;4.40;70.09;99536.25;4981125;28;20039;-68
2023/01/18 10:39:24;;;;;;;12.50;6.90;;;;;;;4.30;67.46;99533.72;4976661;28;20042;-63
2023/01/18 10:41:52;;;;;;;15.15;6.63;;;;;;;4.27;67.00;99532.38;4977053;28;20042;-63
2023/01/18 10:44:20;;;;;;;13.90;6.72;;;;;;;4.67;66.51;99516.38;4977479;28;20242;-67
2023/01/18 10:46:48;;;;;;;19.52;6.53;;;;;;;4.38;66.52;99522.91;4978175;28;20047;-63
2023/01/18 10:49:33;;;;;;;12.43;6.53;;;;;;;4.54;66.84;99532.44;4973658;28;20046;-64
2023/01/18 10:52:26;;;;;;;12.95;6.80;;;;;;;4.73;67.89;99528.78;4975243;28;20050;-64
2023/01/18 10:55:06;;;;;;;18.50;6.72;;;;;;;4.69;66.57;99525.84;4986017;28;20042;-66
2023/01/18 10:57:35;;;;;;;;;;;;;;;4.83;66.36;99523.13;4979991;28;20050;-65
2023/01/18 11:00:11;;;;;;;16.02;6.32;;;;;;;5.10;68.08;99521.16;4981143;28;19929;-65
2023/01/18 11:02:41;;;;;;;14.65;5.97;;;;;;;4.95;66.79;99531.59;4978230;28;20046;-65
2023/01/18 11:05:22;;;;;;;12.25;6.30;;;;;;;4.76;67.50;99522.72;4979238;28;20383;-66
2023/01/18 11:08:32;;;;;;;18.00;7.00;;;;;;;4.87;66.86;99515.94;4975839;28;20043;-66
2023/01/18 11:14:29;;;;;;;9.32;4.95;;;;;;;5.51;63.90;99521.03;4985853;28;20058;-66
2023/01/18 11:17:02;;;;;;;9.55;4.65;;;;;;;5.57;64.04;99517.06;4957881;28;20051;-65
2023/01/18 11:19:30;;;;;;;10.90;5.38;;;;;;;4.82;65.76;99519.59;4983548;28;20058;-65
2023/01/18 11:21:57;;;;;;;12.38;6.03;;;;;;;4.74;66.33;99522.22;4983503;28;20054;-67
2023/01/18 11:24:30;;;;;;;45.63;22.98;;;;;;;5.10;67.42;99503.97;4973299;28;20043;-67
2023/01/18 11:27:13;;;;;;;56.65;19.40;;;;;;;5.31;66.08;99507.88;4966000;28;20410;-66
2023/01/18 11:29:42;;;;;;;28.00;10.63;;;;;;;5.15;65.20;99498.41;4957118;28;20169;-65
2023/01/18 11:32:22;;;;;;;15.05;8.43;;;;;;;5.01;66.50;99497.63;4961358;28;20058;-65
2023/01/18 11:34:52;;;;;;;15.55;7.38;;;;;;;5.14;66.78;99505.81;4982364;28;20063;-67
2023/01/18 11:37:34;;;;;;;18.58;8.20;;;;;;;5.99;65.28;99508.41;4978177;28;20431;-67
2023/01/18 11:40:26;;;;;;;11.48;6.18;;;;;;;6.07;62.72;99504.09;4985181;28;20054;-65
2023/01/18 11:43:02;;;;;;;9.25;4.90;;;;;;;5.54;64.58;99501.31;4972099;28;20419;-67
2023/01/18 11:45:36;;;;;;;19.80;9.18;;;;;;;5.67;63.91;99493.06;4955511;28;20051;-66
2023/01/18 11:48:13;;;;;;;34.50;13.63;;;;;;;5.61;63.59;99493.50;4983737;28;20047;-67
2023/01/18 11:50:51;;;;;;;35.03;13.75;;;;;;;6.16;67.04;99494.81;4963326;28;20058;-66
2023/01/18 11:53:43;;;;;;;22.45;10.85;;;;;;;6.49;63.76;99492.53;4975468;28;20051;-66
2023/01/18 11:56:40;;;;;;;16.02;8.55;;;;;;;6.54;63.88;99498.69;4994588;28;20061;-65
2023/01/18 11:59:13;;;;;;;19.88;8.30;;;;;;;6.56;63.53;99499.19;4978243;28;20684;-65
2023/01/18 12:01:46;;;;;;;18.50;6.80;;;;;;;5.98;61.91;99495.84;4981674;28;20051;-65
2023/01/18 12:04:56;;;;;;;19.05;9.77;;;;;;;5.97;61.75;99498.88;4979216;28;20059;-66
2023/01/18 12:07:26;;;;;;;18.20;8.00;;;;;;;6.08;62.60;99492.88;4974719;28;20406;-65
2023/01/18 12:10:00;;;;;;;15.18;5.93;;;;;;;6.12;63.22;99490.31;5000181;28;20411;-65
2023/01/18 12:12:52;;;;;;;11.32;4.75;;;;;;;6.33;60.88;99488.66;4995206;28;20050;-66
2023/01/18 12:15:25;;;;;;;7.38;3.30;;;;;;;5.65;60.53;99497.19;4994062;28;20047;-65
2023/01/18 12:18:14;;;;;;;11.50;4.15;;;;;;;5.25;62.97;99495.44;4976383;28;20043;-67
2023/01/18 12:20:50;;;;;;;14.13;6.85;;;;;;;5.51;62.27;99493.72;4971144;28;20066;-65
2023/01/18 12:23:44;;;;;;;11.60;5.20;;;;;;;5.96;63.37;99494.56;4980101;28;20043;-65